sensor_id;sensor_type;location;lat;lon;timestamp;P1;durP1;ratioP1;P2;durP2;ratioP2
39370;SDS011;25099;51.946;4.838;2023-08-08T00:02:04;22.55;;;3.92;;
39370;SDS011;25099;51.946;4.838;2023-08-08T00:04:30;13.50;;;2.65;;
39370;SDS011;25099;51.946;4.838;2023-08-08T00:06:56;13.95;;;3.15;;
39370;SDS011;25099;51.946;4.838;2023-08-08T00:09:22;11.30;;;3.33;;
39370;SDS011;25099;51.946;4.838;2023-08-08T00:11:47;17.48;;;2.97;;
39370;SDS011;25099;51.946;4.838;2023-08-08T00:14:13;9.00;;;2.75;;
39370;SDS011;25099;51.946;4.838;2023-08-08T00:16:39;16.90;;;4.15;;
39370;SDS011;25099;51.946;4.838;2023-08-08T00:19:05;12.98;;;3.20;;
39370;SDS011;25099;51.946;4.838;2023-08-08T00:21:30;10.02;;;3.08;;
39370;SDS011;25099;51.946;4.838;2023-08-08T00:23:56;9.73;;;3.40;;
39370;SDS011;25099;51.946;4.838;2023-08-08T00:26:22;11.73;;;3.45;;
39370;SDS011;25099;51.946;4.838;2023-08-08T00:28:47;10.55;;;3.28;;
39370;SDS011;25099;51.946;4.838;2023-08-08T00:31:13;11.60;;;3.47;;
39370;SDS011;25099;51.946;4.838;2023-08-08T00:33:42;20.75;;;4.28;;
39370;SDS011;25099;51.946;4.838;2023-08-08T00:36:07;16.02;;;3.67;;
39370;SDS011;25099;51.946;4.838;2023-08-08T00:38:33;15.65;;;3.97;;
39370;SDS011;25099;51.946;4.838;2023-08-08T00:40:58;18.20;;;4.35;;
39370;SDS011;25099;51.946;4.838;2023-08-08T00:43:24;21.63;;;3.65;;
39370;SDS011;25099;51.946;4.838;2023-08-08T00:45:49;19.92;;;3.28;;
39370;SDS011;25099;51.946;4.838;2023-08-08T00:48:15;12.85;;;4.00;;
39370;SDS011;25099;51.946;4.838;2023-08-08T00:50:43;13.40;;;3.60;;
39370;SDS011;25099;51.946;4.838;2023-08-08T00:53:09;13.40;;;3.30;;
39370;SDS011;25099;51.946;4.838;2023-08-08T00:55:35;15.02;;;3.67;;
39370;SDS011;25099;51.946;4.838;2023-08-08T00:58:01;11.57;;;3.03;;
39370;SDS011;25099;51.946;4.838;2023-08-08T01:00:26;11.93;;;3.58;;
39370;SDS011;25099;51.946;4.838;2023-08-08T01:02:52;12.88;;;4.22;;
39370;SDS011;25099;51.946;4.838;2023-08-08T01:05:17;15.85;;;3.65;;
39370;SDS011;25099;51.946;4.838;2023-08-08T01:07:45;11.80;;;3.22;;
39370;SDS011;25099;51.946;4.838;2023-08-08T01:10:22;12.55;;;3.90;;
39370;SDS011;25099;51.946;4.838;2023-08-08T01:12:53;15.63;;;3.60;;
39370;SDS011;25099;51.946;4.838;2023-08-08T01:15:29;17.42;;;4.13;;
39370;SDS011;25099;51.946;4.838;2023-08-08T01:18:00;9.52;;;3.80;;
39370;SDS011;25099;51.946;4.838;2023-08-08T01:20:30;13.87;;;3.80;;
39370;SDS011;25099;51.946;4.838;2023-08-08T01:25:51;9.40;;;3.30;;
39370;SDS011;25099;51.946;4.838;2023-08-08T01:28:20;10.20;;;3.47;;
39370;SDS011;25099;51.946;4.838;2023-08-08T01:30:47;13.90;;;3.58;;
39370;SDS011;25099;51.946;4.838;2023-08-08T01:33:13;24.33;;;5.45;;
39370;SDS011;25099;51.946;4.838;2023-08-08T01:35:39;14.35;;;3.95;;
39370;SDS011;25099;51.946;4.838;2023-08-08T01:38:13;15.07;;;4.03;;
39370;SDS011;25099;51.946;4.838;2023-08-08T01:40:44;14.82;;;4.03;;
39370;SDS011;25099;51.946;4.838;2023-08-08T01:43:11;11.98;;;3.65;;
39370;SDS011;25099;51.946;4.838;2023-08-08T01:45:39;12.55;;;4.80;;
39370;SDS011;25099;51.946;4.838;2023-08-08T01:48:08;9.70;;;4.88;;
39370;SDS011;25099;51.946;4.838;2023-08-08T01:50:35;11.43;;;4.03;;
39370;SDS011;25099;51.946;4.838;2023-08-08T01:53:01;15.65;;;4.20;;
39370;SDS011;25099;51.946;4.838;2023-08-08T01:55:26;20.13;;;5.60;;
39370;SDS011;25099;51.946;4.838;2023-08-08T01:57:52;11.48;;;3.80;;
39370;SDS011;25099;51.946;4.838;2023-08-08T02:00:18;10.25;;;4.65;;
39370;SDS011;25099;51.946;4.838;2023-08-08T02:02:43;12.20;;;3.55;;
39370;SDS011;25099;51.946;4.838;2023-08-08T02:05:09;10.40;;;4.65;;
39370;SDS011;25099;51.946;4.838;2023-08-08T02:07:35;9.80;;;4.18;;
39370;SDS011;25099;51.946;4.838;2023-08-08T02:10:00;13.18;;;4.32;;
39370;SDS011;25099;51.946;4.838;2023-08-08T02:12:26;8.27;;;3.20;;
39370;SDS011;25099;51.946;4.838;2023-08-08T02:14:53;13.15;;;3.85;;
39370;SDS011;25099;51.946;4.838;2023-08-08T02:17:20;13.63;;;4.35;;
39370;SDS011;25099;51.946;4.838;2023-08-08T02:19:46;9.43;;;3.35;;
39370;SDS011;25099;51.946;4.838;2023-08-08T02:22:11;15.45;;;3.35;;
39370;SDS011;25099;51.946;4.838;2023-08-08T02:24:37;26.73;;;3.80;;
39370;SDS011;25099;51.946;4.838;2023-08-08T02:27:02;13.48;;;3.72;;
39370;SDS011;25099;51.946;4.838;2023-08-08T02:29:29;10.85;;;3.80;;
39370;SDS011;25099;51.946;4.838;2023-08-08T02:31:55;10.80;;;4.05;;
39370;SDS011;25099;51.946;4.838;2023-08-08T02:34:20;14.10;;;3.10;;
39370;SDS011;25099;51.946;4.838;2023-08-08T02:36:46;9.80;;;3.55;;
39370;SDS011;25099;51.946;4.838;2023-08-08T02:39:12;14.55;;;4.43;;
39370;SDS011;25099;51.946;4.838;2023-08-08T02:41:37;9.70;;;3.67;;
39370;SDS011;25099;51.946;4.838;2023-08-08T02:44:03;10.95;;;4.03;;
39370;SDS011;25099;51.946;4.838;2023-08-08T02:46:28;13.10;;;4.30;;
39370;SDS011;25099;51.946;4.838;2023-08-08T02:48:54;8.75;;;4.07;;
39370;SDS011;25099;51.946;4.838;2023-08-08T02:51:19;11.27;;;4.40;;
39370;SDS011;25099;51.946;4.838;2023-08-08T02:53:45;11.80;;;4.13;;
39370;SDS011;25099;51.946;4.838;2023-08-08T02:56:11;17.02;;;4.18;;
39370;SDS011;25099;51.946;4.838;2023-08-08T02:58:36;7.75;;;4.05;;
39370;SDS011;25099;51.946;4.838;2023-08-08T03:01:02;17.05;;;5.10;;
39370;SDS011;25099;51.946;4.838;2023-08-08T03:03:27;6.90;;;3.50;;
39370;SDS011;25099;51.946;4.838;2023-08-08T03:05:53;15.63;;;4.93;;
39370;SDS011;25099;51.946;4.838;2023-08-08T03:08:19;11.88;;;3.40;;
39370;SDS011;25099;51.946;4.838;2023-08-08T03:10:44;9.13;;;4.13;;
39370;SDS011;25099;51.946;4.838;2023-08-08T03:13:10;12.60;;;3.40;;
39370;SDS011;25099;51.946;4.838;2023-08-08T03:15:35;12.52;;;3.95;;
39370;SDS011;25099;51.946;4.838;2023-08-08T03:18:01;6.40;;;3.08;;
39370;SDS011;25099;51.946;4.838;2023-08-08T03:20:28;8.82;;;3.30;;
39370;SDS011;25099;51.946;4.838;2023-08-08T03:22:54;9.95;;;3.70;;
39370;SDS011;25099;51.946;4.838;2023-08-08T03:25:19;8.23;;;3.33;;
39370;SDS011;25099;51.946;4.838;2023-08-08T03:27:45;8.45;;;3.20;;
39370;SDS011;25099;51.946;4.838;2023-08-08T03:30:11;9.18;;;3.22;;
39370;SDS011;25099;51.946;4.838;2023-08-08T03:32:37;4.28;;;2.50;;
39370;SDS011;25099;51.946;4.838;2023-08-08T03:35:02;6.38;;;3.03;;
39370;SDS011;25099;51.946;4.838;2023-08-08T03:37:29;7.10;;;2.63;;
39370;SDS011;25099;51.946;4.838;2023-08-08T03:39:55;5.57;;;2.63;;
39370;SDS011;25099;51.946;4.838;2023-08-08T03:42:20;4.03;;;2.70;;
39370;SDS011;25099;51.946;4.838;2023-08-08T03:44:46;6.00;;;1.95;;
39370;SDS011;25099;51.946;4.838;2023-08-08T03:47:11;8.85;;;1.90;;
39370;SDS011;25099;51.946;4.838;2023-08-08T03:49:37;5.65;;;1.95;;
39370;SDS011;25099;51.946;4.838;2023-08-08T03:52:03;4.95;;;2.08;;
39370;SDS011;25099;51.946;4.838;2023-08-08T03:54:28;5.28;;;2.13;;
39370;SDS011;25099;51.946;4.838;2023-08-08T03:56:54;5.57;;;2.03;;
39370;SDS011;25099;51.946;4.838;2023-08-08T03:59:19;2.70;;;1.77;;
39370;SDS011;25099;51.946;4.838;2023-08-08T04:01:45;3.95;;;1.88;;
39370;SDS011;25099;51.946;4.838;2023-08-08T04:04:11;5.55;;;2.17;;
39370;SDS011;25099;51.946;4.838;2023-08-08T04:06:36;4.38;;;1.77;;
39370;SDS011;25099;51.946;4.838;2023-08-08T04:09:02;2.88;;;1.40;;
39370;SDS011;25099;51.946;4.838;2023-08-08T04:11:28;5.20;;;1.90;;
39370;SDS011;25099;51.946;4.838;2023-08-08T04:13:53;3.38;;;1.48;;
39370;SDS011;25099;51.946;4.838;2023-08-08T04:16:19;3.75;;;1.42;;
39370;SDS011;25099;51.946;4.838;2023-08-08T04:18:45;2.53;;;1.75;;
39370;SDS011;25099;51.946;4.838;2023-08-08T04:21:11;8.85;;;1.88;;
39370;SDS011;25099;51.946;4.838;2023-08-08T04:23:37;5.65;;;1.73;;
39370;SDS011;25099;51.946;4.838;2023-08-08T04:26:02;3.58;;;1.70;;
39370;SDS011;25099;51.946;4.838;2023-08-08T04:28:28;1.95;;;1.42;;
39370;SDS011;25099;51.946;4.838;2023-08-08T04:30:53;4.45;;;1.90;;
39370;SDS011;25099;51.946;4.838;2023-08-08T04:33:19;7.97;;;1.52;;
39370;SDS011;25099;51.946;4.838;2023-08-08T04:35:44;4.32;;;1.48;;
39370;SDS011;25099;51.946;4.838;2023-08-08T04:38:10;6.00;;;1.77;;
39370;SDS011;25099;51.946;4.838;2023-08-08T04:40:38;2.60;;;1.20;;
39370;SDS011;25099;51.946;4.838;2023-08-08T04:43:04;3.58;;;1.17;;
39370;SDS011;25099;51.946;4.838;2023-08-08T04:45:29;5.35;;;1.40;;
39370;SDS011;25099;51.946;4.838;2023-08-08T04:47:55;2.78;;;1.55;;
39370;SDS011;25099;51.946;4.838;2023-08-08T04:50:20;4.45;;;1.13;;
39370;SDS011;25099;51.946;4.838;2023-08-08T04:52:46;2.30;;;1.17;;
39370;SDS011;25099;51.946;4.838;2023-08-08T04:55:12;3.38;;;1.25;;
39370;SDS011;25099;51.946;4.838;2023-08-08T04:57:37;3.47;;;1.95;;
39370;SDS011;25099;51.946;4.838;2023-08-08T05:00:03;4.18;;;1.45;;
39370;SDS011;25099;51.946;4.838;2023-08-08T05:02:33;4.57;;;1.65;;
39370;SDS011;25099;51.946;4.838;2023-08-08T05:04:58;5.50;;;1.23;;
39370;SDS011;25099;51.946;4.838;2023-08-08T05:07:25;2.55;;;1.20;;
39370;SDS011;25099;51.946;4.838;2023-08-08T05:09:51;2.47;;;1.10;;
39370;SDS011;25099;51.946;4.838;2023-08-08T05:12:17;5.32;;;1.50;;
39370;SDS011;25099;51.946;4.838;2023-08-08T05:14:42;7.90;;;1.55;;
39370;SDS011;25099;51.946;4.838;2023-08-08T05:17:08;3.17;;;1.20;;
39370;SDS011;25099;51.946;4.838;2023-08-08T05:19:34;5.18;;;1.08;;
39370;SDS011;25099;51.946;4.838;2023-08-08T05:21:59;3.72;;;1.20;;
39370;SDS011;25099;51.946;4.838;2023-08-08T05:24:25;6.85;;;1.35;;
39370;SDS011;25099;51.946;4.838;2023-08-08T05:26:51;9.27;;;1.50;;
39370;SDS011;25099;51.946;4.838;2023-08-08T05:29:18;3.72;;;1.33;;
39370;SDS011;25099;51.946;4.838;2023-08-08T05:31:44;2.47;;;1.10;;
39370;SDS011;25099;51.946;4.838;2023-08-08T05:34:10;2.67;;;1.00;;
39370;SDS011;25099;51.946;4.838;2023-08-08T05:36:36;1.92;;;1.02;;
39370;SDS011;25099;51.946;4.838;2023-08-08T05:39:01;2.40;;;1.20;;
39370;SDS011;25099;51.946;4.838;2023-08-08T05:41:27;3.08;;;1.30;;
39370;SDS011;25099;51.946;4.838;2023-08-08T05:43:53;2.40;;;1.40;;
39370;SDS011;25099;51.946;4.838;2023-08-08T05:46:18;1.90;;;0.82;;
39370;SDS011;25099;51.946;4.838;2023-08-08T05:48:44;5.97;;;1.48;;
39370;SDS011;25099;51.946;4.838;2023-08-08T05:51:11;3.47;;;1.17;;
39370;SDS011;25099;51.946;4.838;2023-08-08T05:53:37;4.13;;;1.33;;
39370;SDS011;25099;51.946;4.838;2023-08-08T05:56:03;5.18;;;1.38;;
39370;SDS011;25099;51.946;4.838;2023-08-08T05:58:29;4.78;;;1.58;;
39370;SDS011;25099;51.946;4.838;2023-08-08T06:00:54;2.50;;;1.25;;
39370;SDS011;25099;51.946;4.838;2023-08-08T06:03:20;5.47;;;1.00;;
39370;SDS011;25099;51.946;4.838;2023-08-08T06:05:45;7.10;;;1.85;;
39370;SDS011;25099;51.946;4.838;2023-08-08T06:08:11;5.10;;;1.60;;
39370;SDS011;25099;51.946;4.838;2023-08-08T06:10:38;4.18;;;1.30;;
39370;SDS011;25099;51.946;4.838;2023-08-08T06:13:07;4.10;;;1.60;;
39370;SDS011;25099;51.946;4.838;2023-08-08T06:15:32;4.88;;;2.60;;
39370;SDS011;25099;51.946;4.838;2023-08-08T06:17:58;2.55;;;0.85;;
39370;SDS011;25099;51.946;4.838;2023-08-08T06:20:24;7.22;;;2.15;;
39370;SDS011;25099;51.946;4.838;2023-08-08T06:22:50;9.98;;;2.10;;
39370;SDS011;25099;51.946;4.838;2023-08-08T06:25:16;5.60;;;1.60;;
39370;SDS011;25099;51.946;4.838;2023-08-08T06:27:42;4.32;;;1.05;;
39370;SDS011;25099;51.946;4.838;2023-08-08T06:30:07;7.60;;;1.50;;
39370;SDS011;25099;51.946;4.838;2023-08-08T06:32:33;4.18;;;1.10;;
39370;SDS011;25099;51.946;4.838;2023-08-08T06:34:59;3.17;;;1.10;;
39370;SDS011;25099;51.946;4.838;2023-08-08T06:37:25;7.95;;;1.35;;
39370;SDS011;25099;51.946;4.838;2023-08-08T06:39:50;6.30;;;1.73;;
39370;SDS011;25099;51.946;4.838;2023-08-08T06:42:16;3.00;;;1.10;;
39370;SDS011;25099;51.946;4.838;2023-08-08T06:44:42;5.35;;;1.10;;
39370;SDS011;25099;51.946;4.838;2023-08-08T06:47:24;3.92;;;0.77;;
39370;SDS011;25099;51.946;4.838;2023-08-08T06:49:50;3.83;;;0.98;;
39370;SDS011;25099;51.946;4.838;2023-08-08T06:52:15;4.78;;;1.30;;
39370;SDS011;25099;51.946;4.838;2023-08-08T06:54:59;2.90;;;0.90;;
39370;SDS011;25099;51.946;4.838;2023-08-08T06:57:29;6.65;;;1.00;;
39370;SDS011;25099;51.946;4.838;2023-08-08T07:00:00;1.73;;;0.75;;
39370;SDS011;25099;51.946;4.838;2023-08-08T07:02:34;1.55;;;0.70;;
39370;SDS011;25099;51.946;4.838;2023-08-08T07:04:59;5.57;;;1.38;;
39370;SDS011;25099;51.946;4.838;2023-08-08T07:07:25;4.18;;;0.73;;
39370;SDS011;25099;51.946;4.838;2023-08-08T07:09:51;2.08;;;0.82;;
39370;SDS011;25099;51.946;4.838;2023-08-08T07:12:16;6.35;;;1.25;;
39370;SDS011;25099;51.946;4.838;2023-08-08T07:14:42;3.05;;;0.70;;
39370;SDS011;25099;51.946;4.838;2023-08-08T07:17:07;3.40;;;0.73;;
39370;SDS011;25099;51.946;4.838;2023-08-08T07:19:33;3.70;;;0.88;;
39370;SDS011;25099;51.946;4.838;2023-08-08T07:22:01;2.58;;;0.40;;
39370;SDS011;25099;51.946;4.838;2023-08-08T07:24:27;2.72;;;1.58;;
39370;SDS011;25099;51.946;4.838;2023-08-08T07:26:54;2.25;;;0.70;;
39370;SDS011;25099;51.946;4.838;2023-08-08T07:29:20;1.90;;;1.45;;
39370;SDS011;25099;51.946;4.838;2023-08-08T07:31:46;2.05;;;0.80;;
39370;SDS011;25099;51.946;4.838;2023-08-08T07:34:11;5.50;;;0.70;;
39370;SDS011;25099;51.946;4.838;2023-08-08T07:36:37;2.40;;;0.60;;
39370;SDS011;25099;51.946;4.838;2023-08-08T07:39:02;2.03;;;0.57;;
39370;SDS011;25099;51.946;4.838;2023-08-08T07:41:29;3.92;;;0.82;;
39370;SDS011;25099;51.946;4.838;2023-08-08T07:43:55;3.53;;;0.68;;
39370;SDS011;25099;51.946;4.838;2023-08-08T07:46:21;3.85;;;0.70;;
39370;SDS011;25099;51.946;4.838;2023-08-08T07:48:47;2.08;;;0.80;;
39370;SDS011;25099;51.946;4.838;2023-08-08T07:51:13;15.70;;;2.47;;
39370;SDS011;25099;51.946;4.838;2023-08-08T07:53:38;1.15;;;0.77;;
39370;SDS011;25099;51.946;4.838;2023-08-08T07:56:04;0.95;;;0.80;;
39370;SDS011;25099;51.946;4.838;2023-08-08T07:58:31;3.42;;;1.52;;
39370;SDS011;25099;51.946;4.838;2023-08-08T08:00:57;1.58;;;0.70;;
39370;SDS011;25099;51.946;4.838;2023-08-08T08:03:23;2.70;;;0.80;;
39370;SDS011;25099;51.946;4.838;2023-08-08T08:05:51;2.40;;;0.52;;
39370;SDS011;25099;51.946;4.838;2023-08-08T08:08:16;0.93;;;0.55;;
39370;SDS011;25099;51.946;4.838;2023-08-08T08:10:42;1.85;;;0.55;;
39370;SDS011;25099;51.946;4.838;2023-08-08T08:13:08;2.95;;;0.45;;
39370;SDS011;25099;51.946;4.838;2023-08-08T08:15:35;3.80;;;0.57;;
39370;SDS011;25099;51.946;4.838;2023-08-08T08:18:01;1.33;;;0.68;;
39370;SDS011;25099;51.946;4.838;2023-08-08T08:20:27;2.28;;;0.60;;
39370;SDS011;25099;51.946;4.838;2023-08-08T08:22:52;2.97;;;0.55;;
39370;SDS011;25099;51.946;4.838;2023-08-08T08:25:18;4.93;;;0.60;;
39370;SDS011;25099;51.946;4.838;2023-08-08T08:27:43;0.95;;;0.40;;
39370;SDS011;25099;51.946;4.838;2023-08-08T08:30:09;1.52;;;0.65;;
39370;SDS011;25099;51.946;4.838;2023-08-08T08:32:35;1.48;;;0.70;;
39370;SDS011;25099;51.946;4.838;2023-08-08T08:35:02;0.82;;;0.50;;
39370;SDS011;25099;51.946;4.838;2023-08-08T08:37:31;1.08;;;0.40;;
39370;SDS011;25099;51.946;4.838;2023-08-08T08:39:57;1.15;;;0.40;;
39370;SDS011;25099;51.946;4.838;2023-08-08T08:42:23;4.35;;;1.05;;
39370;SDS011;25099;51.946;4.838;2023-08-08T08:44:51;1.55;;;0.60;;
39370;SDS011;25099;51.946;4.838;2023-08-08T08:47:19;2.95;;;0.60;;
39370;SDS011;25099;51.946;4.838;2023-08-08T08:49:45;1.00;;;0.52;;
39370;SDS011;25099;51.946;4.838;2023-08-08T08:52:11;4.72;;;1.35;;
39370;SDS011;25099;51.946;4.838;2023-08-08T08:54:37;3.15;;;1.48;;
39370;SDS011;25099;51.946;4.838;2023-08-08T08:57:03;1.77;;;0.50;;
39370;SDS011;25099;51.946;4.838;2023-08-08T08:59:29;1.15;;;0.80;;
39370;SDS011;25099;51.946;4.838;2023-08-08T09:01:55;1.83;;;0.60;;
39370;SDS011;25099;51.946;4.838;2023-08-08T09:04:22;1.02;;;0.63;;
39370;SDS011;25099;51.946;4.838;2023-08-08T09:06:49;1.73;;;0.77;;
39370;SDS011;25099;51.946;4.838;2023-08-08T09:09:16;0.95;;;0.80;;
39370;SDS011;25099;51.946;4.838;2023-08-08T09:11:45;1.23;;;0.50;;
39370;SDS011;25099;51.946;4.838;2023-08-08T09:14:20;5.30;;;0.77;;
39370;SDS011;25099;51.946;4.838;2023-08-08T09:16:47;2.67;;;0.73;;
39370;SDS011;25099;51.946;4.838;2023-08-08T09:19:14;1.65;;;0.68;;
39370;SDS011;25099;51.946;4.838;2023-08-08T09:21:41;1.58;;;0.80;;
39370;SDS011;25099;51.946;4.838;2023-08-08T09:24:06;3.08;;;0.85;;
39370;SDS011;25099;51.946;4.838;2023-08-08T09:26:32;3.35;;;0.75;;
39370;SDS011;25099;51.946;4.838;2023-08-08T09:28:59;4.20;;;1.23;;
39370;SDS011;25099;51.946;4.838;2023-08-08T09:31:26;5.47;;;1.20;;
39370;SDS011;25099;51.946;4.838;2023-08-08T09:33:53;3.47;;;0.85;;
39370;SDS011;25099;51.946;4.838;2023-08-08T09:36:19;1.83;;;1.05;;
39370;SDS011;25099;51.946;4.838;2023-08-08T09:38:47;3.10;;;0.77;;
39370;SDS011;25099;51.946;4.838;2023-08-08T09:41:13;4.78;;;0.80;;
39370;SDS011;25099;51.946;4.838;2023-08-08T09:43:39;2.63;;;1.00;;
39370;SDS011;25099;51.946;4.838;2023-08-08T09:46:04;1.80;;;0.70;;
39370;SDS011;25099;51.946;4.838;2023-08-08T09:48:30;2.15;;;0.90;;
39370;SDS011;25099;51.946;4.838;2023-08-08T09:50:58;1.65;;;0.77;;
39370;SDS011;25099;51.946;4.838;2023-08-08T09:53:27;1.50;;;0.63;;
39370;SDS011;25099;51.946;4.838;2023-08-08T09:55:54;1.65;;;0.90;;
39370;SDS011;25099;51.946;4.838;2023-08-08T09:58:20;0.68;;;0.68;;
39370;SDS011;25099;51.946;4.838;2023-08-08T10:00:48;3.55;;;1.13;;
39370;SDS011;25099;51.946;4.838;2023-08-08T10:03:15;0.80;;;0.77;;
39370;SDS011;25099;51.946;4.838;2023-08-08T10:05:41;2.50;;;1.10;;
39370;SDS011;25099;51.946;4.838;2023-08-08T10:08:08;2.90;;;0.80;;
39370;SDS011;25099;51.946;4.838;2023-08-08T10:10:34;2.47;;;1.00;;
39370;SDS011;25099;51.946;4.838;2023-08-08T10:13:00;3.55;;;0.65;;
39370;SDS011;25099;51.946;4.838;2023-08-08T10:15:26;4.80;;;0.68;;
39370;SDS011;25099;51.946;4.838;2023-08-08T10:17:53;0.90;;;0.50;;
39370;SDS011;25099;51.946;4.838;2023-08-08T10:20:20;2.95;;;0.82;;
39370;SDS011;25099;51.946;4.838;2023-08-08T10:22:46;1.40;;;0.98;;
39370;SDS011;25099;51.946;4.838;2023-08-08T10:25:25;1.50;;;0.80;;
39370;SDS011;25099;51.946;4.838;2023-08-08T10:28:04;5.15;;;0.95;;
39370;SDS011;25099;51.946;4.838;2023-08-08T10:30:47;3.45;;;0.75;;
39370;SDS011;25099;51.946;4.838;2023-08-08T10:33:18;1.95;;;0.60;;
39370;SDS011;25099;51.946;4.838;2023-08-08T10:35:54;2.67;;;0.70;;
39370;SDS011;25099;51.946;4.838;2023-08-08T10:38:23;2.58;;;0.90;;
39370;SDS011;25099;51.946;4.838;2023-08-08T10:40:56;1.45;;;0.60;;
39370;SDS011;25099;51.946;4.838;2023-08-08T10:43:26;5.20;;;1.70;;
39370;SDS011;25099;51.946;4.838;2023-08-08T10:48:21;3.30;;;0.80;;
39370;SDS011;25099;51.946;4.838;2023-08-08T10:50:47;1.67;;;0.70;;
39370;SDS011;25099;51.946;4.838;2023-08-08T10:53:13;1.45;;;0.70;;
39370;SDS011;25099;51.946;4.838;2023-08-08T10:55:38;2.03;;;0.60;;
39370;SDS011;25099;51.946;4.838;2023-08-08T10:58:05;1.83;;;0.77;;
39370;SDS011;25099;51.946;4.838;2023-08-08T11:03:01;2.78;;;1.00;;
39370;SDS011;25099;51.946;4.838;2023-08-08T11:05:32;4.00;;;1.53;;
39370;SDS011;25099;51.946;4.838;2023-08-08T11:07:58;1.77;;;0.95;;
39370;SDS011;25099;51.946;4.838;2023-08-08T11:10:25;3.03;;;0.70;;
39370;SDS011;25099;51.946;4.838;2023-08-08T11:12:56;2.08;;;0.77;;
39370;SDS011;25099;51.946;4.838;2023-08-08T11:15:24;1.45;;;0.90;;
39370;SDS011;25099;51.946;4.838;2023-08-08T11:17:51;1.75;;;0.73;;
39370;SDS011;25099;51.946;4.838;2023-08-08T11:20:18;1.58;;;1.00;;
39370;SDS011;25099;51.946;4.838;2023-08-08T11:22:44;0.68;;;0.68;;
39370;SDS011;25099;51.946;4.838;2023-08-08T11:25:09;3.22;;;1.27;;
39370;SDS011;25099;51.946;4.838;2023-08-08T11:27:35;1.83;;;1.15;;
39370;SDS011;25099;51.946;4.838;2023-08-08T11:30:00;1.77;;;1.13;;
39370;SDS011;25099;51.946;4.838;2023-08-08T11:32:27;3.22;;;1.20;;
39370;SDS011;25099;51.946;4.838;2023-08-08T11:34:53;3.05;;;1.00;;
39370;SDS011;25099;51.946;4.838;2023-08-08T11:37:20;5.50;;;1.13;;
39370;SDS011;25099;51.946;4.838;2023-08-08T11:39:46;2.83;;;1.20;;
39370;SDS011;25099;51.946;4.838;2023-08-08T11:42:12;2.13;;;0.82;;
39370;SDS011;25099;51.946;4.838;2023-08-08T11:44:38;1.50;;;0.70;;
39370;SDS011;25099;51.946;4.838;2023-08-08T11:47:03;1.80;;;0.90;;
39370;SDS011;25099;51.946;4.838;2023-08-08T11:49:29;1.75;;;1.00;;
39370;SDS011;25099;51.946;4.838;2023-08-08T11:51:55;6.55;;;2.47;;
39370;SDS011;25099;51.946;4.838;2023-08-08T11:54:21;2.42;;;0.60;;
39370;SDS011;25099;51.946;4.838;2023-08-08T11:56:47;1.58;;;0.80;;
39370;SDS011;25099;51.946;4.838;2023-08-08T11:59:12;1.92;;;1.02;;
39370;SDS011;25099;51.946;4.838;2023-08-08T12:01:38;7.97;;;1.40;;
39370;SDS011;25099;51.946;4.838;2023-08-08T12:04:07;1.50;;;0.80;;
39370;SDS011;25099;51.946;4.838;2023-08-08T12:06:34;2.28;;;0.95;;
39370;SDS011;25099;51.946;4.838;2023-08-08T12:09:04;1.40;;;0.85;;
39370;SDS011;25099;51.946;4.838;2023-08-08T12:11:33;1.38;;;0.90;;
39370;SDS011;25099;51.946;4.838;2023-08-08T12:14:00;1.05;;;0.80;;
39370;SDS011;25099;51.946;4.838;2023-08-08T12:16:27;2.58;;;1.50;;
39370;SDS011;25099;51.946;4.838;2023-08-08T12:18:57;8.75;;;1.00;;
39370;SDS011;25099;51.946;4.838;2023-08-08T12:21:25;2.40;;;1.30;;
39370;SDS011;25099;51.946;4.838;2023-08-08T12:23:51;2.85;;;1.00;;
39370;SDS011;25099;51.946;4.838;2023-08-08T12:26:17;2.90;;;0.77;;
39370;SDS011;25099;51.946;4.838;2023-08-08T12:28:43;2.67;;;0.85;;
39370;SDS011;25099;51.946;4.838;2023-08-08T12:31:09;1.73;;;0.93;;
39370;SDS011;25099;51.946;4.838;2023-08-08T12:33:35;3.80;;;0.82;;
39370;SDS011;25099;51.946;4.838;2023-08-08T12:36:00;2.42;;;0.90;;
39370;SDS011;25099;51.946;4.838;2023-08-08T12:38:26;2.17;;;0.98;;
39370;SDS011;25099;51.946;4.838;2023-08-08T12:40:51;2.50;;;1.10;;
39370;SDS011;25099;51.946;4.838;2023-08-08T12:43:17;1.80;;;0.90;;
39370;SDS011;25099;51.946;4.838;2023-08-08T12:45:43;1.45;;;0.75;;
39370;SDS011;25099;51.946;4.838;2023-08-08T12:48:10;1.75;;;0.73;;
39370;SDS011;25099;51.946;4.838;2023-08-08T12:50:36;1.48;;;0.70;;
39370;SDS011;25099;51.946;4.838;2023-08-08T12:53:02;3.65;;;1.00;;
39370;SDS011;25099;51.946;4.838;2023-08-08T12:55:29;2.28;;;1.00;;
39370;SDS011;25099;51.946;4.838;2023-08-08T12:57:55;2.25;;;1.05;;
39370;SDS011;25099;51.946;4.838;2023-08-08T13:00:20;3.88;;;1.05;;
39370;SDS011;25099;51.946;4.838;2023-08-08T13:02:46;3.05;;;1.05;;
39370;SDS011;25099;51.946;4.838;2023-08-08T13:05:12;1.50;;;0.65;;
39370;SDS011;25099;51.946;4.838;2023-08-08T13:07:38;1.42;;;1.00;;
39370;SDS011;25099;51.946;4.838;2023-08-08T13:10:03;3.33;;;1.02;;
39370;SDS011;25099;51.946;4.838;2023-08-08T13:12:29;1.05;;;0.85;;
39370;SDS011;25099;51.946;4.838;2023-08-08T13:14:55;6.35;;;0.70;;
39370;SDS011;25099;51.946;4.838;2023-08-08T13:17:21;2.45;;;0.70;;
39370;SDS011;25099;51.946;4.838;2023-08-08T13:19:46;0.73;;;0.60;;
39370;SDS011;25099;51.946;4.838;2023-08-08T13:22:12;1.05;;;0.75;;
39370;SDS011;25099;51.946;4.838;2023-08-08T13:24:38;1.17;;;0.95;;
39370;SDS011;25099;51.946;4.838;2023-08-08T13:27:04;4.72;;;0.90;;
39370;SDS011;25099;51.946;4.838;2023-08-08T13:29:29;1.90;;;0.80;;
39370;SDS011;25099;51.946;4.838;2023-08-08T13:31:55;3.97;;;0.95;;
39370;SDS011;25099;51.946;4.838;2023-08-08T13:34:21;1.75;;;0.90;;
39370;SDS011;25099;51.946;4.838;2023-08-08T13:36:47;1.08;;;0.95;;
39370;SDS011;25099;51.946;4.838;2023-08-08T13:39:12;1.88;;;1.00;;
39370;SDS011;25099;51.946;4.838;2023-08-08T13:41:38;1.95;;;1.00;;
39370;SDS011;25099;51.946;4.838;2023-08-08T13:44:04;1.98;;;1.10;;
39370;SDS011;25099;51.946;4.838;2023-08-08T13:46:30;2.92;;;0.80;;
39370;SDS011;25099;51.946;4.838;2023-08-08T13:48:55;6.75;;;1.88;;
39370;SDS011;25099;51.946;4.838;2023-08-08T13:51:21;4.43;;;1.90;;
39370;SDS011;25099;51.946;4.838;2023-08-08T13:53:46;1.65;;;1.17;;
39370;SDS011;25099;51.946;4.838;2023-08-08T13:56:14;1.52;;;1.00;;
39370;SDS011;25099;51.946;4.838;2023-08-08T13:58:39;1.17;;;1.00;;
39370;SDS011;25099;51.946;4.838;2023-08-08T14:01:05;2.20;;;0.80;;
39370;SDS011;25099;51.946;4.838;2023-08-08T14:03:31;1.88;;;1.10;;
39370;SDS011;25099;51.946;4.838;2023-08-08T14:05:57;3.78;;;1.23;;
39370;SDS011;25099;51.946;4.838;2023-08-08T14:08:23;4.50;;;1.10;;
39370;SDS011;25099;51.946;4.838;2023-08-08T14:10:48;3.33;;;1.33;;
39370;SDS011;25099;51.946;4.838;2023-08-08T14:13:14;1.98;;;1.00;;
39370;SDS011;25099;51.946;4.838;2023-08-08T14:15:40;2.15;;;1.15;;
39370;SDS011;25099;51.946;4.838;2023-08-08T14:18:06;2.25;;;1.23;;
39370;SDS011;25099;51.946;4.838;2023-08-08T14:20:32;2.63;;;1.20;;
39370;SDS011;25099;51.946;4.838;2023-08-08T14:22:57;3.00;;;1.65;;
39370;SDS011;25099;51.946;4.838;2023-08-08T14:25:23;6.30;;;1.40;;
39370;SDS011;25099;51.946;4.838;2023-08-08T14:27:49;5.55;;;1.35;;
39370;SDS011;25099;51.946;4.838;2023-08-08T14:30:14;1.40;;;1.27;;
39370;SDS011;25099;51.946;4.838;2023-08-08T14:32:40;1.63;;;1.25;;
39370;SDS011;25099;51.946;4.838;2023-08-08T14:35:06;4.97;;;1.50;;
39370;SDS011;25099;51.946;4.838;2023-08-08T14:37:33;3.45;;;1.50;;
39370;SDS011;25099;51.946;4.838;2023-08-08T14:40:00;4.00;;;2.00;;
39370;SDS011;25099;51.946;4.838;2023-08-08T14:42:25;1.88;;;1.45;;
39370;SDS011;25099;51.946;4.838;2023-08-08T14:44:51;2.83;;;1.38;;
39370;SDS011;25099;51.946;4.838;2023-08-08T14:47:16;1.90;;;1.30;;
39370;SDS011;25099;51.946;4.838;2023-08-08T14:49:42;4.32;;;1.23;;